Time;durP1;ratioP1;P1;durP2;ratioP2;P2;SDS_P1;SDS_P2;PMS_P1;PMS_P2;Temp;Humidity;BMP_temperature;BMP_pressure;BME280_temperature;BME280_humidity;BME280_pressure;Samples;Min_cycle;Max_cycle;Signal;HPM_P1;HPM_P2
2021/12/29 00:00:14;;;;;;;;;6.00;3.33;;;;;12.70;60.27;100271.59;5010366;28;45820;-80
2021/12/29 00:02:39;;;;;;;;;3.67;2.67;;;;;12.70;59.97;100264.19;5009248;28;48369;-75
2021/12/29 00:05:06;;;;;;;;;4.67;4.00;;;;;12.69;59.78;100262.53;5012966;28;45388;-80
2021/12/29 00:07:32;;;;;;;;;4.00;3.00;;;;;12.70;60.14;100288.94;5012990;28;44828;-81
2021/12/29 00:10:00;;;;;;;;;5.67;3.00;;;;;12.68;60.22;100288.34;5012452;28;45428;-77
2021/12/29 00:12:26;;;;;;;;;7.67;3.33;;;;;12.71;60.31;100298.06;5014162;28;46335;-79
2021/12/29 00:14:53;;;;;;;;;10.67;4.00;;;;;12.75;60.08;100293.75;5011656;28;45852;-75
2021/12/29 00:17:20;;;;;;;;;6.67;4.33;;;;;12.75;60.12;100295.66;5011645;28;45855;-80
2021/12/29 00:19:58;;;;;;;;;3.67;3.67;;;;;12.76;59.98;100311.09;5012197;28;45515;-79
2021/12/29 00:22:24;;;;;;;;;7.00;3.67;;;;;12.76;60.02;100322.94;5010349;28;47697;-78
2021/12/29 00:24:49;;;;;;;;;9.33;5.00;;;;;12.74;59.66;100327.84;5012204;28;45711;-78
2021/12/29 00:27:15;;;;;;;;;6.67;3.00;;;;;12.74;59.70;100327.00;5024744;28;45470;-79
2021/12/29 00:29:41;;;;;;;;;4.00;3.00;;;;;12.72;59.86;100341.00;5030420;28;45216;-79
2021/12/29 00:32:23;;;;;;;;;8.00;5.00;;;;;12.71;59.79;100342.09;5024873;28;45443;-74
2021/12/29 00:34:48;;;;;;;;;4.33;4.00;;;;;12.70;59.70;100343.97;5006077;28;45475;-78
2021/12/29 00:37:14;;;;;;;;;5.00;5.00;;;;;12.80;59.81;100359.06;5002692;28;45415;-79
2021/12/29 00:39:40;;;;;;;;;2.67;2.67;;;;;12.80;60.03;100354.44;5019069;28;45518;-79
2021/12/29 00:42:05;;;;;;;;;9.33;3.67;;;;;12.77;59.77;100367.81;5016415;28;45651;-76
2021/12/29 00:44:33;;;;;;;;;8.00;4.00;;;;;12.81;59.36;100374.53;5018065;28;45731;-77
2021/12/29 00:46:59;;;;;;;;;10.50;4.50;;;;;12.78;59.82;100359.31;5015307;28;45508;-80
2021/12/29 00:49:31;;;;;;;;;6.00;4.33;;;;;12.83;59.83;100366.88;5018764;28;45783;-74
2021/12/29 00:51:57;;;;;;;;;4.33;3.33;;;;;12.82;59.64;100370.72;4999660;28;45584;-80
2021/12/29 00:54:23;;;;;;;;;8.33;6.33;;;;;12.79;59.86;100363.75;4996560;28;46057;-75
2021/12/29 00:56:48;;;;;;;;;5.33;0.67;;;;;12.77;59.72;100363.16;5014268;28;45774;-79
2021/12/29 00:59:14;;;;;;;;;7.00;3.00;;;;;12.82;59.86;100370.72;5013467;28;45392;-74
2021/12/29 01:01:39;;;;;;;;;6.67;4.00;;;;;12.82;60.31;100366.03;5017076;28;45506;-75
2021/12/29 01:04:05;;;;;;;;;6.00;3.00;;;;;12.82;60.41;100366.03;5017840;28;45375;-78
2021/12/29 01:06:31;;;;;;;;;6.00;4.00;;;;;12.78;60.43;100364.81;5017196;28;45729;-77
2021/12/29 01:08:57;;;;;;;;;6.00;5.00;;;;;12.77;60.89;100363.16;5023299;28;45458;-81
2021/12/29 01:11:23;;;;;;;;;8.00;4.33;;;;;12.74;60.97;100366.38;5021241;28;45499;-75
2021/12/29 01:13:49;;;;;;;;;10.00;5.00;;;;;12.70;60.41;100363.22;5007946;28;45384;-75
2021/12/29 01:19:11;;;;;;;;;9.67;4.67;;;;;12.75;61.33;100375.47;5031907;28;44865;-74
2021/12/29 01:21:40;;;;;;;;;5.00;5.00;;;;;12.73;60.79;100383.94;5027493;28;45420;-79
2021/12/29 01:24:07;;;;;;;;;8.67;4.00;;;;;12.71;61.22;100381.44;5016539;28;45266;-75
2021/12/29 01:26:34;;;;;;;;;14.67;6.00;;;;;12.69;61.60;100382.72;5009897;28;45416;-81
2021/12/29 01:29:00;;;;;;;;;10.00;6.67;;;;;12.68;61.44;100383.81;5006846;28;45713;-76
2021/12/29 01:31:25;;;;;;;;;4.00;3.33;;;;;12.71;61.94;100375.09;5017732;28;46067;-77
2021/12/29 01:33:51;;;;;;;;;12.33;6.00;;;;;12.68;61.32;100372.81;5019245;28;45462;-75
2021/12/29 01:36:16;;;;;;;;;11.33;4.67;;;;;12.70;61.16;100374.22;5017685;28;45422;-76
2021/12/29 01:38:42;;;;;;;;;8.33;5.00;;;;;12.73;61.56;100374.88;5017887;28;45971;-75
2021/12/29 01:41:07;;;;;;;;;5.67;4.00;;;;;12.73;61.58;100367.44;5020101;28;46701;-79
2021/12/29 01:43:46;;;;;;;;;11.33;5.33;;;;;12.74;61.45;100373.78;5019200;28;45459;-78
2021/12/29 01:46:12;;;;;;;;;8.67;6.00;;;;;12.74;61.43;100379.28;5000030;28;45142;-75
2021/12/29 01:48:37;;;;;;;;;7.67;4.33;;;;;12.67;61.99;100365.63;5017318;28;47262;-76
2021/12/29 01:51:03;;;;;;;;;6.00;4.33;;;;;12.68;62.11;100375.56;5001537;28;47057;-79
2021/12/29 01:57:11;;;;;;;;;12.67;5.33;;;;;12.64;62.48;100385.34;4953687;28;45639;-79
2021/12/29 01:59:37;;;;;;;;;13.33;9.33;;;;;12.63;62.23;100381.72;4958508;28;45326;-75
2021/12/29 02:02:04;;;;;;;;;14.00;13.00;;;;;12.62;62.30;100388.31;4966528;28;45796;-74
2021/12/29 02:04:29;;;;;;;;;12.67;9.33;;;;;12.65;62.94;100395.25;5017452;28;45719;-77
2021/12/29 02:06:55;;;;;;;;;6.67;4.00;;;;;12.66;62.76;100391.44;5020447;28;45434;-78
2021/12/29 02:09:21;;;;;;;;;7.67;5.67;;;;;12.69;63.18;100401.97;5017084;28;45482;-79
2021/12/29 02:11:46;;;;;;;;;8.67;3.67;;;;;12.65;62.93;100387.00;5000611;28;47253;-77
2021/12/29 02:14:13;;;;;;;;;12.00;7.33;;;;;12.68;63.01;100400.31;4999505;28;45497;-77
2021/12/29 02:16:38;;;;;;;;;9.33;6.00;;;;;12.68;62.58;100392.91;5000733;28;45792;-79
2021/12/29 02:19:08;;;;;;;;;9.33;6.00;;;;;12.68;62.84;100387.41;5017482;28;45475;-78
2021/12/29 02:21:35;;;;;;;;;9.00;6.67;;;;;12.66;62.47;100386.78;5017711;28;45507;-78
2021/12/29 02:26:36;;;;;;;;;11.33;5.00;;;;;12.69;63.08;100388.22;5015626;28;45387;-79
2021/12/29 02:29:03;;;;;;;;;8.00;4.33;;;;;12.68;62.38;100397.56;5016926;28;46383;-79
2021/12/29 02:31:29;;;;;;;;;9.00;5.33;;;;;12.70;63.48;100395.41;5017482;28;46759;-77
2021/12/29 02:33:56;;;;;;;;;6.33;3.33;;;;;12.70;62.76;100395.41;5017243;28;45839;-74
2021/12/29 02:36:22;;;;;;;;;10.00;4.00;;;;;12.73;63.38;100394.94;5015958;28;45513;-74
2021/12/29 02:38:52;;;;;;;;;6.00;3.00;;;;;12.75;63.21;100390.03;4998876;28;45300;-77
2021/12/29 02:41:19;;;;;;;;;12.00;4.67;;;;;12.76;62.82;100388.97;5017819;28;45382;-77
2021/12/29 02:43:45;;;;;;;;;7.67;5.00;;;;;12.80;63.23;100397.59;5015200;28;45817;-79
2021/12/29 02:46:15;;;;;;;;;8.67;5.67;;;;;12.83;62.79;100386.13;5017811;28;45727;-79
2021/12/29 02:48:52;;;;;;;;;8.67;7.67;;;;;12.85;62.57;100387.59;5016440;28;45629;-78
2021/12/29 02:51:18;;;;;;;;;5.33;4.00;;;;;12.88;62.63;100384.38;5017750;28;46311;-74
2021/12/29 02:53:43;;;;;;;;;4.00;3.00;;;;;12.87;62.62;100373.59;5014778;28;45498;-74
2021/12/29 02:56:09;;;;;;;;;6.00;4.67;;;;;12.85;62.53;100381.25;5014930;28;45444;-75
2021/12/29 02:58:35;;;;;;;;;10.00;6.00;;;;;12.89;62.10;100383.31;5017902;28;45485;-74
2021/12/29 03:01:03;;;;;;;;;6.33;5.33;;;;;12.89;62.36;100383.31;4991312;28;47873;-79
2021/12/29 03:03:30;;;;;;;;;8.67;4.00;;;;;12.90;62.32;100384.13;4993430;28;45540;-75
2021/12/29 03:05:57;;;;;;;;;4.00;3.00;;;;;12.94;62.77;100392.78;5010960;28;46682;-75
2021/12/29 03:08:24;;;;;;;;;5.00;3.33;;;;;12.96;61.98;100388.69;4992720;28;46581;-78
2021/12/29 03:10:53;;;;;;;;;8.00;3.00;;;;;12.95;62.11;100380.69;5009375;28;47013;-74
2021/12/29 03:13:23;;;;;;;;;5.67;4.00;;;;;13.00;62.21;100389.09;5010754;28;45812;-74
2021/12/29 03:15:49;;;;;;;;;8.00;4.67;;;;;13.03;62.19;100397.69;5010651;28;45439;-78
2021/12/29 03:18:15;;;;;;;;;10.00;4.67;;;;;13.04;62.64;100395.81;5011467;28;45907;-74
2021/12/29 03:20:41;;;;;;;;;7.00;4.33;;;;;13.10;61.97;100391.25;5008856;28;48050;-74
2021/12/29 03:23:07;;;;;;;;;6.00;4.00;;;;;13.11;61.50;100390.19;4992704;28;45309;-78
2021/12/29 03:25:32;;;;;;;;;7.00;5.33;;;;;13.10;62.25;100383.00;5009351;28;45752;-79
2021/12/29 03:28:00;;;;;;;;;2.67;1.33;;;;;13.09;62.53;100390.44;5011049;28;45616;-77
2021/12/29 03:30:33;;;;;;;;;5.00;4.00;;;;;13.11;62.94;100398.44;5010382;28;46007;-79
2021/12/29 03:33:05;;;;;;;;;5.00;4.00;;;;;13.14;62.09;100396.06;5010028;28;45466;-73
2021/12/29 03:35:51;;;;;;;;;6.33;3.33;;;;;13.14;62.38;100393.31;4992988;28;45572;-73
2021/12/29 03:38:20;;;;;;;;;5.67;4.00;;;;;13.13;62.78;100394.41;4993012;28;45920;-74
2021/12/29 03:40:46;;;;;;;;;5.67;3.33;;;;;13.13;62.54;100383.38;5011440;28;45878;-74
2021/12/29 03:43:12;;;;;;;;;4.00;4.00;;;;;13.16;63.00;100388.41;5011227;28;45494;-74
2021/12/29 03:45:40;;;;;;;;;5.00;2.00;;;;;13.17;62.98;100390.13;5011466;28;45672;-74
2021/12/29 03:48:07;;;;;;;;;7.00;3.00;;;;;13.17;63.19;100392.00;5011721;28;45692;-74
2021/12/29 03:50:34;;;;;;;;;3.67;3.00;;;;;13.17;62.28;100390.13;5011266;28;45564;-75
2021/12/29 03:53:00;;;;;;;;;2.00;2.00;;;;;13.15;63.22;100375.72;5009326;28;45980;-73
2021/12/29 03:55:25;;;;;;;;;5.00;2.00;;;;;13.15;62.79;100375.72;5009481;28;45780;-76
2021/12/29 03:57:51;;;;;;;;;3.00;2.00;;;;;13.24;62.67;100376.22;5009667;28;45594;-78
2021/12/29 04:00:18;;;;;;;;;3.00;2.00;;;;;13.24;62.60;100376.22;5010780;28;45457;-78
2021/12/29 04:02:45;;;;;;;;;11.00;4.00;;;;;13.27;62.64;100374.94;5011372;28;45670;-77
2021/12/29 04:05:15;;;;;;;;;4.00;2.67;;;;;13.23;62.54;100369.88;5009805;28;46112;-78
2021/12/29 04:07:40;;;;;;;;;3.33;2.33;;;;;13.29;62.06;100378.28;5008481;28;45849;-76
2021/12/29 04:10:08;;;;;;;;;3.33;3.33;;;;;13.28;62.16;100376.59;5011993;28;45872;-78
2021/12/29 04:12:34;;;;;;;;;5.33;4.33;;;;;13.23;62.40;100358.88;5000791;28;45795;-74
2021/12/29 04:15:00;;;;;;;;;4.33;3.33;;;;;13.32;61.90;100375.03;5011277;28;45672;-79
2021/12/29 04:17:36;;;;;;;;;8.33;3.33;;;;;13.32;61.55;100375.03;5011610;28;45793;-76
2021/12/29 04:22:54;;;;;;;;;3.33;1.33;;;;;13.30;62.55;100363.44;5015093;28;45464;-76
2021/12/29 04:25:24;;;;;;;;;1.67;1.67;;;;;13.32;61.68;100375.03;5011890;28;44808;-78
2021/12/29 04:27:54;;;;;;;;;5.00;3.67;;;;;13.34;62.45;100372.94;5005158;28;46355;-78
2021/12/29 04:30:21;;;;;;;;;4.67;2.67;;;;;13.36;61.43;100373.53;5035775;28;45658;-78
2021/12/29 04:32:47;;;;;;;;;1.67;1.67;;;;;13.33;61.72;100358.28;5037080;28;45292;-78
2021/12/29 04:35:13;;;;;;;;;2.67;2.00;;;;;13.32;62.40;100369.53;5034469;28;45365;-78
2021/12/29 04:37:39;;;;;;;;;1.67;1.67;;;;;13.30;62.52;100371.69;5028854;28;45565;-79
2021/12/29 04:40:06;;;;;;;;;4.00;1.33;;;;;13.29;63.25;100364.50;5028528;28;45388;-78
2021/12/29 04:42:32;;;;;;;;;3.67;3.67;;;;;13.26;63.19;100365.81;5030897;28;45427;-78
2021/12/29 04:44:57;;;;;;;;;4.67;2.00;;;;;13.24;63.93;100367.97;5030451;28;45411;-78
2021/12/29 04:47:28;;;;;;;;;3.67;1.67;;;;;13.15;63.76;100359.19;5012031;28;45949;-78
2021/12/29 04:49:55;;;;;;;;;7.67;4.33;;;;;13.18;64.29;100355.16;5028914;28;45476;-79
2021/12/29 04:52:20;;;;;;;;;8.00;3.00;;;;;13.17;64.47;100351.56;5012079;28;45253;-78
2021/12/29 04:54:46;;;;;;;;;3.33;1.67;;;;;13.15;64.02;100356.44;5029486;28;45454;-78
2021/12/29 04:57:12;;;;;;;;;2.00;2.00;;;;;13.09;64.11;100346.38;5012627;28;45454;-77
2021/12/29 04:59:38;;;;;;;;;3.00;0.67;;;;;13.11;64.21;100346.16;5029734;28;45424;-77
2021/12/29 05:02:03;;;;;;;;;3.33;2.00;;;;;13.10;64.61;100352.72;5030372;28;45383;-77
2021/12/29 05:04:34;;;;;;;;;6.00;0.67;;;;;13.10;64.40;100356.31;5030817;28;45419;-77
2021/12/29 05:09:45;;;;;;;;;4.00;0.67;;;;;13.04;65.30;100340.75;5031885;28;45736;-79
2021/12/29 05:12:11;;;;;;;;;3.00;1.00;;;;;13.07;64.96;100341.09;5032039;28;45374;-77
2021/12/29 05:14:37;;;;;;;;;1.00;1.00;;;;;13.09;65.57;100340.88;5032936;28;45830;-78
2021/12/29 05:17:03;;;;;;;;;3.00;2.00;;;;;13.09;65.12;100343.63;5031509;28;45521;-76
2021/12/29 05:19:29;;;;;;;;;4.00;2.00;;;;;13.10;64.78;100337.06;5031276;28;46015;-77
2021/12/29 05:21:54;;;;;;;;;2.67;2.00;;;;;13.11;64.52;100341.47;5030402;28;45645;-73
2021/12/29 05:24:20;;;;;;;;;4.00;1.00;;;;;13.16;64.43;100338.00;5017315;28;45434;-74
2021/12/29 05:26:45;;;;;;;;;3.33;1.00;;;;;13.17;64.72;100339.69;5021708;28;45376;-77
2021/12/29 05:29:11;;;;;;;;;0.33;0.33;;;;;13.18;65.15;100347.72;5011546;28;47102;-78
2021/12/29 05:31:37;;;;;;;;;2.00;0.00;;;;;13.17;65.70;100335.03;5000147;28;45516;-73
2021/12/29 05:34:02;;;;;;;;;2.00;2.00;;;;;13.13;65.87;100328.31;5015912;28;45629;-72
2021/12/29 05:36:28;;;;;;;;;1.00;1.00;;;;;13.03;66.17;100317.03;5020544;28;45843;-79
2021/12/29 05:38:55;;;;;;;;;0.33;0.33;;;;;13.05;66.45;100314.88;5027602;28;45585;-77
2021/12/29 05:41:21;;;;;;;;;3.33;1.00;;;;;13.00;67.06;100321.09;5026523;28;45386;-76
2021/12/29 05:43:46;;;;;;;;;2.00;0.67;;;;;12.96;66.80;100311.63;5028150;28;45482;-77
2021/12/29 05:46:16;;;;;;;;;1.00;1.00;;;;;12.93;67.26;100319.53;5030890;28;45691;-77
2021/12/29 05:48:41;;;;;;;;;4.00;0.33;;;;;12.90;67.86;100304.31;5024740;28;48122;-78
2021/12/29 05:51:07;;;;;;;;;2.00;0.67;;;;;12.87;68.10;100313.91;5033773;28;45266;-79
2021/12/29 05:53:33;;;;;;;;;2.67;1.33;;;;;12.84;67.65;100311.63;5036728;28;45198;-77
2021/12/29 05:55:59;;;;;;;;;1.00;1.00;;;;;12.84;68.39;100308.88;5034950;28;45447;-78
2021/12/29 05:58:24;;;;;;;;;2.00;2.00;;;;;12.82;68.57;100304.66;5033724;28;45324;-79
2021/12/29 06:00:51;;;;;;;;;0.67;0.67;;;;;12.79;68.84;100305.13;5030120;28;45422;-78
2021/12/29 06:03:19;;;;;;;;;4.00;1.00;;;;;12.76;69.09;100313.84;5008364;28;44766;-78
2021/12/29 06:05:44;;;;;;;;;2.00;2.00;;;;;12.73;68.83;100314.34;5027208;28;45774;-76
2021/12/29 06:08:10;;;;;;;;;3.00;3.00;;;;;12.72;69.55;100310.72;5032069;28;45399;-78
2021/12/29 06:10:36;;;;;;;;;2.00;1.00;;;;;12.68;69.37;100304.03;5030263;28;45669;-79
2021/12/29 06:13:01;;;;;;;;;3.00;3.00;;;;;12.61;69.59;100303.28;5030447;28;45483;-77
2021/12/29 06:15:27;;;;;;;;;1.00;1.00;;;;;12.60;70.14;100301.59;5003243;28;46072;-77
2021/12/29 06:17:52;;;;;;;;;4.00;3.00;;;;;12.57;70.38;100305.63;4991946;28;48038;-72
2021/12/29 06:20:18;;;;;;;;;2.67;2.00;;;;;12.56;70.30;100311.38;5010712;28;45557;-72
2021/12/29 06:22:44;;;;;;;;;2.33;2.00;;;;;12.52;71.15;100314.59;5010926;28;45757;-77
2021/12/29 06:25:12;;;;;;;;;3.00;3.00;;;;;12.49;71.03;100304.06;5010581;28;46778;-77
2021/12/29 06:27:38;;;;;;;;;5.00;3.00;;;;;12.47;71.21;100308.97;5011323;28;45498;-77
2021/12/29 06:30:07;;;;;;;;;3.67;3.67;;;;;12.50;71.53;100311.25;5011361;28;45561;-70
2021/12/29 06:32:32;;;;;;;;;6.00;3.00;;;;;12.53;71.16;100313.53;4992798;28;45780;-76
2021/12/29 06:34:58;;;;;;;;;5.33;5.33;;;;;12.52;71.13;100314.59;5009602;28;45804;-75
2021/12/29 06:37:24;;;;;;;;;3.67;3.33;;;;;12.52;71.56;100322.84;5008698;28;46854;-73
2021/12/29 06:39:50;;;;;;;;;3.00;3.00;;;;;12.49;71.78;100306.81;5011325;28;45527;-74
2021/12/29 06:42:16;;;;;;;;;5.00;3.00;;;;;12.52;71.48;100306.34;4993369;28;46065;-79
2021/12/29 06:44:43;;;;;;;;;5.00;5.00;;;;;12.47;71.75;100308.97;5010697;28;45954;-72
2021/12/29 06:47:08;;;;;;;;;3.67;3.67;;;;;12.44;72.08;100305.81;5010678;28;45505;-77
2021/12/29 06:49:35;;;;;;;;;4.33;4.00;;;;;12.42;72.42;100310.72;5011538;28;45636;-74
2021/12/29 06:52:02;;;;;;;;;3.33;3.33;;;;;12.42;72.40;100317.06;5011856;28;44910;-73
2021/12/29 06:54:28;;;;;;;;;4.67;3.00;;;;;12.41;73.06;100312.66;5011416;28;46868;-73
2021/12/29 06:56:54;;;;;;;;;4.67;4.67;;;;;12.44;73.22;100314.06;5011420;28;45580;-75
2021/12/29 06:59:19;;;;;;;;;4.33;4.00;;;;;12.41;72.63;100304.41;4994482;28;45797;-73
2021/12/29 07:01:45;;;;;;;;;5.67;4.33;;;;;12.45;72.57;100311.09;5010909;28;45416;-74
2021/12/29 07:04:11;;;;;;;;;5.00;5.00;;;;;12.47;73.44;100306.22;5010290;28;45518;-73
2021/12/29 07:06:36;;;;;;;;;4.00;4.00;;;;;12.42;73.51;100311.56;5011150;28;46010;-75
2021/12/29 07:09:02;;;;;;;;;5.00;3.00;;;;;12.43;73.60;100316.00;5011270;28;45431;-75
2021/12/29 07:11:28;;;;;;;;;5.00;5.00;;;;;12.43;73.15;100318.75;5205357;22;45815;-76
2021/12/29 07:13:53;;;;;;;;;2.00;2.00;;;;;12.49;72.90;100315.06;5001614;28;45724;-75
2021/12/29 07:16:22;;;;;;;;;5.33;4.67;;;;;12.49;73.40;100314.22;5017482;28;46509;-75
2021/12/29 07:18:48;;;;;;;;;5.00;4.00;;;;;12.44;73.09;100308.56;4993795;28;45761;-76
2021/12/29 07:21:15;;;;;;;;;3.00;3.00;;;;;12.40;73.89;100313.72;5004883;28;45794;-67
2021/12/29 07:23:40;;;;;;;;;2.00;2.00;;;;;12.36;73.76;100307.84;5003527;28;45814;-68
2021/12/29 07:26:06;;;;;;;;;6.33;4.00;;;;;12.32;74.07;100301.13;5001932;28;47609;-68
2021/12/29 07:28:31;;;;;;;;;5.00;5.00;;;;;12.34;74.42;100311.88;5010002;28;45442;-76
2021/12/29 07:30:57;;;;;;;;;7.33;4.00;;;;;12.37;75.04;100297.66;5011210;28;45973;-69
2021/12/29 07:33:22;;;;;;;;;6.00;6.00;;;;;12.31;74.30;100293.94;5005655;28;45656;-70
2021/12/29 07:35:48;;;;;;;;;4.00;4.00;;;;;12.28;74.78;100310.91;5004797;28;46047;-69
2021/12/29 07:38:14;;;;;;;;;4.67;4.67;;;;;12.32;74.96;100309.38;4991852;28;45896;-76
2021/12/29 07:40:40;;;;;;;;;5.67;3.00;;;;;12.28;74.79;100305.41;5009190;28;45832;-68
2021/12/29 07:43:05;;;;;;;;;4.67;3.67;;;;;12.22;74.90;100311.81;4989752;28;46355;-77
2021/12/29 07:45:31;;;;;;;;;7.00;4.33;;;;;12.24;74.68;100311.59;4991377;28;47152;-70
2021/12/29 07:47:57;;;;;;;;;6.00;4.67;;;;;12.27;75.21;100330.38;5022003;28;45903;-69
2021/12/29 07:50:22;;;;;;;;;5.67;5.67;;;;;12.33;74.71;100329.44;5007800;28;45497;-70
2021/12/29 07:52:48;;;;;;;;;5.00;4.00;;;;;12.39;74.53;100334.00;4991087;28;45640;-76
2021/12/29 07:55:18;;;;;;;;;5.00;4.00;;;;;12.39;74.65;100327.69;5011088;28;45577;-79
2021/12/29 07:57:44;;;;;;;;;5.67;5.00;;;;;12.39;74.73;100322.19;5004613;28;46191;-70
2021/12/29 08:00:11;;;;;;;;;7.33;6.67;;;;;12.40;74.77;100324.72;5008441;28;45399;-70
2021/12/29 08:02:37;;;;;;;;;4.67;4.67;;;;;12.42;74.10;100340.97;5008566;28;45873;-78
2021/12/29 08:05:06;;;;;;;;;6.33;6.33;;;;;12.44;75.07;100336.06;4999090;28;45945;-67
2021/12/29 08:07:31;;;;;;;;;10.00;8.67;;;;;12.46;75.32;100340.28;5011404;28;45617;-70
2021/12/29 08:09:57;;;;;;;;;7.00;6.00;;;;;12.51;75.13;100339.59;5006162;28;45892;-78
2021/12/29 08:12:22;;;;;;;;;9.33;9.33;;;;;12.56;74.76;100344.38;4990181;28;46883;-78
2021/12/29 08:14:49;;;;;;;;;12.33;11.33;;;;;12.58;74.86;100334.84;4995266;28;45917;-77
2021/12/29 08:17:15;;;;;;;;;5.33;5.33;;;;;12.55;74.42;100349.06;4995654;28;45842;-79
2021/12/29 08:19:43;;;;;;;;;6.00;6.00;;;;;12.54;74.86;100353.72;5006034;28;45524;-78
2021/12/29 08:22:09;;;;;;;;;5.00;4.33;;;;;12.57;75.05;100349.66;4982717;28;45771;-79
2021/12/29 08:24:35;;;;;;;;;7.00;5.33;;;;;12.57;74.55;100354.31;4989709;28;47053;-78
2021/12/29 08:27:01;;;;;;;;;7.00;5.67;;;;;12.64;75.03;100353.16;5006164;28;45396;-70
2021/12/29 08:29:26;;;;;;;;;4.00;3.67;;;;;12.63;74.56;100348.72;4976540;28;45447;-80
2021/12/29 08:31:51;;;;;;;;;4.00;4.00;;;;;12.65;75.11;100365.00;4996053;28;45877;-78
2021/12/29 08:34:17;;;;;;;;;4.67;4.67;;;;;12.69;74.72;100368.97;5007345;28;45872;-81
2021/12/29 08:36:43;;;;;;;;;6.67;6.67;;;;;12.71;74.93;100353.91;5016579;28;45450;-72
2021/12/29 08:39:09;;;;;;;;;6.00;5.00;;;;;12.75;74.40;100362.53;5010359;28;45791;-71
2021/12/29 08:41:34;;;;;;;;;8.00;5.33;;;;;12.76;74.61;100366.13;5009020;28;45651;-72
2021/12/29 08:44:00;;;;;;;;;4.33;3.33;;;;;12.80;74.94;100357.19;5009242;28;45504;-71
2021/12/29 08:46:26;;;;;;;;;5.00;5.00;;;;;12.93;74.39;100358.88;5010934;28;45504;-71
2021/12/29 08:48:52;;;;;;;;;7.00;5.00;;;;;12.99;74.10;100359.88;5011479;28;45504;-72
2021/12/29 08:51:19;;;;;;;;;5.00;5.00;;;;;13.00;74.11;100354.13;5011841;28;45481;-70
2021/12/29 08:53:45;;;;;;;;;3.00;3.00;;;;;13.07;73.71;100354.88;5011088;28;46534;-72
2021/12/29 08:56:13;;;;;;;;;8.33;4.33;;;;;13.11;73.86;100360.75;5011380;28;45858;-71
2021/12/29 08:58:38;;;;;;;;;5.33;4.00;;;;;13.17;74.35;100354.31;5009558;28;47177;-80
2021/12/29 09:01:04;;;;;;;;;3.33;3.33;;;;;13.25;73.81;100364.16;5013889;28;45560;-71
2021/12/29 09:03:30;;;;;;;;;5.00;4.00;;;;;13.31;73.47;100356.81;5008489;28;45914;-71
2021/12/29 09:05:55;;;;;;;;;4.33;3.33;;;;;13.39;73.77;100353.78;5011070;28;45558;-71
2021/12/29 09:08:21;;;;;;;;;3.00;3.00;;;;;13.42;73.59;100354.13;5009299;28;46056;-80
2021/12/29 09:10:46;;;;;;;;;3.00;3.00;;;;;13.48;73.55;100360.59;5014176;28;45447;-79
2021/12/29 09:13:13;;;;;;;;;3.00;3.00;;;;;13.53;73.65;100355.25;5007129;28;46021;-80
2021/12/29 09:15:39;;;;;;;;;4.00;2.33;;;;;13.60;73.24;100349.59;5009710;28;45975;-72
2021/12/29 09:18:05;;;;;;;;;1.67;1.67;;;;;13.69;72.99;100336.31;5013951;28;45842;-79
2021/12/29 09:20:31;;;;;;;;;2.33;2.33;;;;;13.77;72.61;100333.19;4993201;28;45412;-71
2021/12/29 09:23:07;;;;;;;;;9.33;9.33;;;;;13.83;73.52;100337.75;5019081;28;46865;-72
2021/12/29 09:25:34;;;;;;;;;28.67;23.67;;;;;13.84;72.66;100333.91;5009344;28;45762;-80
2021/12/29 09:28:00;;;;;;;;;10.00;9.00;;;;;13.96;73.20;100355.94;4996000;28;45423;-79
2021/12/29 09:30:30;;;;;;;;;11.33;10.00;;;;;14.01;72.87;100355.22;5011299;28;45504;-81
2021/12/29 09:32:56;;;;;;;;;8.00;7.67;;;;;14.03;73.32;100355.84;4995978;28;45474;-71
2021/12/29 09:35:22;;;;;;;;;19.33;14.00;;;;;14.08;72.66;100351.25;5009263;28;45370;-72
2021/12/29 09:37:50;;;;;;;;;19.67;14.00;;;;;14.18;73.15;100353.41;5011349;28;45917;-70
2021/12/29 09:40:18;;;;;;;;;14.33;11.33;;;;;14.25;72.86;100340.31;5014129;28;45523;-71
2021/12/29 09:42:44;;;;;;;;;11.00;11.00;;;;;14.39;73.11;100348.31;5010172;28;46694;-72
2021/12/29 09:45:10;;;;;;;;;9.33;8.33;;;;;14.47;72.50;100340.47;4994512;28;45552;-82
2021/12/29 09:47:36;;;;;;;;;12.33;9.33;;;;;14.55;72.59;100338.41;5013449;28;45661;-80
2021/12/29 09:50:08;;;;;;;;;12.33;10.00;;;;;14.63;72.39;100335.31;5014086;28;45786;-80
2021/12/29 09:52:34;;;;;;;;;8.00;8.00;;;;;14.71;72.20;100337.66;5014380;28;47455;-79
2021/12/29 09:55:04;;;;;;;;;10.67;9.33;;;;;14.77;72.64;100336.69;5012154;28;45794;-80
2021/12/29 09:57:32;;;;;;;;;13.00;10.00;;;;;14.78;72.18;100324.56;5009040;28;45863;-81
2021/12/29 09:59:57;;;;;;;;;13.33;12.33;;;;;14.89;71.98;100338.56;4996458;28;47663;-79
2021/12/29 10:02:22;;;;;;;;;13.33;10.00;;;;;14.98;72.53;100337.94;5010256;28;46144;-80
2021/12/29 10:04:48;;;;;;;;;8.67;7.00;;;;;15.06;71.83;100336.69;5014000;28;45891;-80
2021/12/29 10:07:17;;;;;;;;;10.00;8.33;;;;;15.13;71.83;100333.75;5013500;28;45659;-81
2021/12/29 10:09:42;;;;;;;;;9.67;9.00;;;;;15.16;71.39;100339.63;5013742;28;45368;-78
2021/12/29 10:12:11;;;;;;;;;12.00;11.00;;;;;15.21;71.93;100335.25;5010547;28;45825;-81
2021/12/29 10:14:36;;;;;;;;;6.67;5.67;;;;;15.25;71.39;100339.19;4991661;28;45914;-81
2021/12/29 10:17:10;;;;;;;;;9.33;9.33;;;;;15.23;71.21;100328.41;4990872;28;45772;-82
2021/12/29 10:19:37;;;;;;;;;4.67;4.67;;;;;15.35;71.16;100347.66;5008116;28;45937;-72
2021/12/29 10:22:02;;;;;;;;;5.67;4.67;;;;;15.39;71.48;100350.75;4993386;28;47943;-79
2021/12/29 10:24:28;;;;;;;;;8.67;7.67;;;;;15.42;71.37;100344.72;5011148;28;45591;-80
2021/12/29 10:26:57;;;;;;;;;7.33;5.33;;;;;15.44;71.59;100356.38;5013266;28;45553;-80
2021/12/29 10:29:23;;;;;;;;;3.67;3.67;;;;;15.45;71.59;100353.38;5011473;28;46251;-78
2021/12/29 10:32:02;;;;;;;;;4.67;3.00;;;;;15.46;72.18;100355.00;5010194;28;45526;-78
2021/12/29 10:34:29;;;;;;;;;1.00;1.00;;;;;15.51;72.19;100354.28;5009788;28;46030;-70
2021/12/29 10:37:09;;;;;;;;;3.67;3.00;;;;;15.58;72.46;100346.66;5010025;28;45980;-71
2021/12/29 10:39:43;;;;;;;;;0.00;0.00;;;;;15.67;72.20;100356.22;5007378;28;45572;-72
2021/12/29 10:42:13;;;;;;;;;2.00;2.00;;;;;15.74;72.54;100361.56;5008952;28;45868;-73
2021/12/29 10:44:43;;;;;;;;;1.00;1.00;;;;;15.71;72.40;100362.06;5008761;28;45830;-70
2021/12/29 10:47:25;;;;;;;;;1.00;1.00;;;;;15.76;72.37;100364.88;4991373;28;45545;-71
2021/12/29 10:49:56;;;;;;;;;3.67;1.00;;;;;15.81;72.86;100361.44;5013404;28;45669;-80
2021/12/29 10:52:43;;;;;;;;;3.00;3.00;;;;;15.87;73.46;100365.94;5010346;28;47162;-81
2021/12/29 10:55:15;;;;;;;;;1.00;0.00;;;;;15.95;72.75;100350.84;5002125;28;45479;-73
2021/12/29 10:57:42;;;;;;;;;0.75;0.00;;;;;15.98;72.83;100361.38;5007452;28;45691;-71
2021/12/29 11:00:14;;;;;;;;;2.33;0.00;;;;;15.95;72.83;100368.25;5008582;28;45501;-72
2021/12/29 11:02:45;;;;;;;;;1.33;0.33;;;;;15.91;73.45;100364.31;5012618;28;46630;-78
2021/12/29 11:05:11;;;;;;;;;0.00;0.00;;;;;15.92;73.59;100377.06;5007491;28;45491;-71
2021/12/29 11:07:41;;;;;;;;;0.67;0.00;;;;;15.94;72.93;100366.56;4994148;28;45813;-72
2021/12/29 11:10:19;;;;;;;;;3.00;0.00;;;;;15.95;73.50;100379.31;5001427;28;45775;-71
2021/12/29 11:12:56;;;;;;;;;0.00;0.00;;;;;15.96;73.25;100380.16;5019399;28;45696;-78
2021/12/29 11:15:25;;;;;;;;;0.00;0.00;;;;;16.00;73.42;100378.56;5013193;28;45407;-79
2021/12/29 11:17:53;;;;;;;;;0.33;0.33;;;;;16.03;73.78;100370.59;5007928;28;45913;-71
2021/12/29 11:20:22;;;;;;;;;1.00;1.00;;;;;16.11;73.35;100380.38;5004364;28;45900;-79
2021/12/29 11:22:48;;;;;;;;;2.00;1.00;;;;;16.19;73.42;100385.47;5013704;28;45768;-72
2021/12/29 11:25:14;;;;;;;;;3.00;3.00;;;;;16.26;73.38;100379.75;5009926;28;45756;-80
2021/12/29 11:27:40;;;;;;;;;2.00;2.00;;;;;16.31;73.06;100381.75;5005599;28;45445;-80
2021/12/29 11:30:12;;;;;;;;;1.00;1.00;;;;;16.31;73.18;100390.06;5007673;28;45451;-71
2021/12/29 11:32:44;;;;;;;;;0.00;0.00;;;;;16.32;73.08;100384.28;4988597;28;47363;-71
2021/12/29 11:35:29;;;;;;;;;0.33;0.00;;;;;16.34;73.08;100381.25;5006921;28;45582;-77
2021/12/29 11:37:57;;;;;;;;;0.75;0.75;;;;;16.44;72.45;100386.91;4989553;28;45538;-71